Time;durP1;ratioP1;P1;durP2;ratioP2;P2;SDS_P1;SDS_P2;PMS_P1;PMS_P2;Temp;Humidity;BMP_temperature;BMP_pressure;BME280_temperature;BME280_humidity;BME280_pressure;Samples;Min_cycle;Max_cycle;Signal;HPM_P1;HPM_P2
2023/05/02 00:01:30;;;;;;;34.47;17.88;;;;;;;-144.85;100.00;61331.59;5071494;28;30677;-84
2023/05/02 00:03:57;;;;;;;32.40;18.02;;;;;;;-144.85;100.00;61331.59;5069346;28;31305;-84
2023/05/02 00:06:24;;;;;;;34.38;17.95;;;;;;;-144.85;100.00;61331.59;5066231;28;31494;-84
2023/05/02 00:08:52;;;;;;;33.97;17.67;;;;;;;-144.85;100.00;61331.59;5065019;28;32119;-84
2023/05/02 00:11:19;;;;;;;32.63;17.70;;;;;;;-144.85;100.00;61331.59;5073086;28;32781;-84
2023/05/02 00:13:46;;;;;;;33.88;18.60;;;;;;;-144.85;100.00;61331.59;5078679;28;32105;-83
2023/05/02 00:16:13;;;;;;;34.08;18.05;;;;;;;-144.85;100.00;61331.59;5074924;28;31632;-85
2023/05/02 00:18:40;;;;;;;35.15;17.83;;;;;;;-144.85;100.00;61331.59;5072458;28;31101;-85
2023/05/02 00:21:07;;;;;;;35.58;18.13;;;;;;;-144.85;100.00;61331.59;5067856;28;32028;-83
2023/05/02 00:23:35;;;;;;;31.38;17.77;;;;;;;-144.85;100.00;61331.59;5067617;28;31262;-85
2023/05/02 00:26:02;;;;;;;34.20;18.58;;;;;;;-144.85;100.00;61331.59;5069931;28;32413;-83
2023/05/02 00:28:29;;;;;;;34.53;16.85;;;;;;;-144.85;100.00;61331.59;5073173;28;32703;-83
2023/05/02 00:30:56;;;;;;;33.20;17.85;;;;;;;-144.85;100.00;61331.59;5070885;28;32039;-85
2023/05/02 00:33:23;;;;;;;31.92;18.00;;;;;;;-144.85;100.00;61331.59;5071163;28;30769;-85
2023/05/02 00:35:51;;;;;;;33.88;18.58;;;;;;;-144.85;100.00;61331.59;5068749;28;34215;-84
2023/05/02 00:38:18;;;;;;;31.90;17.15;;;;;;;-144.85;100.00;61331.59;5071941;28;31512;-82
2023/05/02 00:40:47;;;;;;;35.63;17.83;;;;;;;-144.85;100.00;61331.59;5073011;28;31884;-84
2023/05/02 00:43:15;;;;;;;35.53;16.92;;;;;;;-144.85;100.00;61331.59;5066303;28;31136;-84
2023/05/02 00:45:44;;;;;;;34.95;17.55;;;;;;;-144.85;100.00;61331.59;5050016;28;31397;-84
2023/05/02 00:48:11;;;;;;;32.03;16.80;;;;;;;-144.85;100.00;61331.59;5069555;28;31871;-85
2023/05/02 00:50:41;;;;;;;34.30;17.77;;;;;;;-144.85;100.00;61331.59;5046718;28;30834;-83
2023/05/02 00:53:09;;;;;;;31.08;17.10;;;;;;;-144.85;100.00;61331.59;5066853;28;31351;-83
2023/05/02 00:55:37;;;;;;;32.10;17.75;;;;;;;-144.85;100.00;61331.59;5056774;28;32560;-84
2023/05/02 00:58:10;;;;;;;36.05;17.80;;;;;;;-144.85;100.00;61331.59;5067088;28;31401;-84
2023/05/02 01:00:53;;;;;;;29.60;16.23;;;;;;;-144.85;100.00;61331.59;5071418;28;31991;-83
2023/05/02 01:03:34;;;;;;;29.33;15.60;;;;;;;-144.85;100.00;61331.59;5071220;28;30066;-84
2023/05/02 01:06:18;;;;;;;30.55;16.10;;;;;;;-144.85;100.00;61331.59;5064147;28;32416;-84
2023/05/02 01:09:07;;;;;;;26.40;15.85;;;;;;;-144.85;100.00;61331.59;5059144;28;32003;-85
2023/05/02 01:11:45;;;;;;;29.15;16.25;;;;;;;-144.85;100.00;61331.59;5070349;28;32382;-84
2023/05/02 01:14:13;;;;;;;29.65;16.52;;;;;;;-144.85;100.00;61331.59;5072545;28;32570;-84
2023/05/02 01:16:44;;;;;;;29.83;17.88;;;;;;;-144.85;100.00;61331.59;5058252;28;31133;-84
2023/05/02 01:19:30;;;;;;;32.22;17.42;;;;;;;-144.85;100.00;61331.59;5078069;28;32311;-83
2023/05/02 01:21:58;;;;;;;;;;;;;;;-144.85;100.00;61331.59;5064594;28;31631;-85
2023/05/02 01:24:31;;;;;;;27.65;14.88;;;;;;;-144.85;100.00;61331.59;5056105;28;31470;-83
2023/05/02 01:27:21;;;;;;;29.42;16.77;;;;;;;-144.85;100.00;61331.59;5061033;28;31649;-85
2023/05/02 01:29:51;;;;;;;32.35;16.88;;;;;;;-144.85;100.00;61331.59;5076901;28;32076;-85
2023/05/02 01:32:22;;;;;;;33.17;16.63;;;;;;;-144.85;100.00;61331.59;5059768;28;31159;-84
2023/05/02 01:34:52;;;;;;;29.10;15.70;;;;;;;-144.85;100.00;61331.59;5076476;28;31274;-85
2023/05/02 01:37:22;;;;;;;29.88;16.02;;;;;;;-144.85;100.00;61331.59;5062859;28;31393;-86
2023/05/02 01:39:51;;;;;;;29.65;16.15;;;;;;;-144.85;100.00;61331.59;5082687;28;31330;-83
2023/05/02 01:42:19;;;;;;;27.45;15.48;;;;;;;-144.85;100.00;61331.59;5082190;28;31019;-84
2023/05/02 01:44:49;;;;;;;27.75;15.98;;;;;;;-144.85;100.00;61331.59;5077478;28;31522;-84
2023/05/02 01:47:18;;;;;;;24.52;14.95;;;;;;;-144.85;100.00;61331.59;5075514;28;33132;-85
2023/05/02 01:49:46;;;;;;;29.63;14.95;;;;;;;-144.85;100.00;61331.59;5057832;28;31016;-84
2023/05/02 01:52:15;;;;;;;24.83;15.63;;;;;;;-144.85;100.00;61331.59;5070388;28;30934;-84
2023/05/02 01:54:44;;;;;;;24.45;12.88;;;;;;;-144.85;100.00;61331.59;5061063;28;30423;-85
2023/05/02 01:57:11;;;;;;;27.70;16.17;;;;;;;-144.85;100.00;61331.59;5078634;28;31426;-84
2023/05/02 01:59:41;;;;;;;26.30;15.32;;;;;;;-144.85;100.00;61331.59;5075561;28;30937;-84
2023/05/02 02:02:11;;;;;;;28.27;16.25;;;;;;;-144.85;100.00;61331.59;5081514;28;31700;-85
2023/05/02 02:04:39;;;;;;;27.88;15.43;;;;;;;-144.85;100.00;61331.59;5078118;28;31442;-83
2023/05/02 02:07:12;;;;;;;28.75;15.93;;;;;;;-144.85;100.00;61331.59;5066622;28;31545;-85
2023/05/02 02:09:40;;;;;;;26.40;15.32;;;;;;;-144.85;100.00;61331.59;5092415;28;32417;-85
2023/05/02 02:12:15;;;;;;;26.50;14.80;;;;;;;-144.85;100.00;61331.59;5063867;28;30632;-85
2023/05/02 02:14:55;;;;;;;27.00;14.40;;;;;;;-144.85;100.00;61331.59;5074481;28;31663;-84
2023/05/02 02:17:31;;;;;;;24.00;15.15;;;;;;;-144.85;100.00;61331.59;5085883;28;31114;-85
2023/05/02 02:20:02;;;;;;;26.20;15.02;;;;;;;-144.85;100.00;61331.59;5084078;28;31400;-86
2023/05/02 02:22:32;;;;;;;26.52;15.02;;;;;;;-144.85;100.00;61331.59;5065481;28;30651;-83
2023/05/02 02:25:00;;;;;;;26.33;15.50;;;;;;;-144.85;100.00;61331.59;5082627;28;30726;-86
2023/05/02 02:27:27;;;;;;;27.52;14.93;;;;;;;-144.85;100.00;61331.59;5082667;28;31466;-84
2023/05/02 02:29:54;;;;;;;22.02;11.65;;;;;;;-144.85;100.00;61331.59;5100733;28;31528;-86
2023/05/02 02:32:21;;;;;;;24.08;13.00;;;;;;;-144.85;100.00;61331.59;5073591;28;31723;-83
2023/05/02 02:34:49;;;;;;;26.08;14.77;;;;;;;-144.85;100.00;61331.59;5083734;28;32067;-84
2023/05/02 02:37:19;;;;;;;28.88;15.95;;;;;;;-144.85;100.00;61331.59;5084942;28;32559;-84
2023/05/02 02:40:15;;;;;;;29.88;17.00;;;;;;;-144.85;100.00;61331.59;5063162;28;32782;-85
2023/05/02 02:42:48;;;;;;;29.48;15.55;;;;;;;-144.85;100.00;61331.59;5074597;28;31005;-86
2023/05/02 02:45:43;;;;;;;24.55;14.43;;;;;;;-144.85;100.00;61331.59;5079583;28;30844;-84
2023/05/02 02:48:33;;;;;;;26.92;16.08;;;;;;;-144.85;100.00;61331.59;5077935;28;32161;-84
2023/05/02 02:51:01;;;;;;;29.77;16.77;;;;;;;-144.85;100.00;61331.59;5057140;28;31425;-84
2023/05/02 02:53:42;;;;;;;28.50;15.70;;;;;;;-144.85;100.00;61331.59;5064727;28;32022;-83
2023/05/02 02:56:18;;;;;;;25.48;14.05;;;;;;;-144.85;100.00;61331.59;5072311;28;30280;-83
2023/05/02 02:58:54;;;;;;;24.88;14.50;;;;;;;-144.85;100.00;61331.59;5089977;28;31312;-84
2023/05/02 03:01:25;;;;;;;21.50;13.43;;;;;;;-144.85;100.00;61331.59;5075960;28;31154;-84
2023/05/02 03:03:55;;;;;;;29.02;14.05;;;;;;;-144.85;100.00;61331.59;5059440;28;30714;-83
2023/05/02 03:06:23;;;;;;;22.80;13.65;;;;;;;-144.85;100.00;61331.59;5065717;28;31517;-83
2023/05/02 03:08:51;;;;;;;23.58;14.05;;;;;;;-144.85;100.00;61331.59;5074628;28;31622;-82
2023/05/02 03:11:24;;;;;;;24.30;13.63;;;;;;;-144.85;100.00;61331.59;5073270;28;31387;-83
2023/05/02 03:13:53;;;;;;;26.33;13.82;;;;;;;-144.85;100.00;61331.59;5069941;28;31008;-83
2023/05/02 03:16:37;;;;;;;20.92;12.48;;;;;;;-144.85;100.00;61331.59;5071671;28;30583;-82
2023/05/02 03:19:08;;;;;;;20.40;10.98;;;;;;;-144.85;100.00;61331.59;5075798;28;32580;-81
2023/05/02 03:21:36;;;;;;;15.13;8.85;;;;;;;-144.85;100.00;61331.59;5075588;28;31261;-83
2023/05/02 03:24:14;;;;;;;15.38;7.72;;;;;;;-144.85;100.00;61331.59;5063753;28;30850;-84
2023/05/02 03:26:46;;;;;;;13.63;6.32;;;;;;;-144.85;100.00;61331.59;5063913;28;30184;-83
2023/05/02 03:29:14;;;;;;;10.90;5.38;;;;;;;-144.85;100.00;61331.59;5072559;28;31825;-84
2023/05/02 03:31:42;;;;;;;11.52;5.57;;;;;;;-144.85;100.00;61331.59;5071929;28;32572;-83
2023/05/02 03:34:09;;;;;;;7.45;4.38;;;;;;;-144.85;100.00;61331.59;5067614;28;30988;-82
2023/05/02 03:36:37;;;;;;;10.57;4.07;;;;;;;-144.85;100.00;61331.59;5063865;28;31903;-81
2023/05/02 03:39:05;;;;;;;5.00;3.78;;;;;;;-144.85;100.00;61331.59;5071254;28;32304;-83
2023/05/02 03:41:32;;;;;;;8.07;3.90;;;;;;;-144.85;100.00;61331.59;5069540;28;30888;-84
2023/05/02 03:44:05;;;;;;;5.88;3.65;;;;;;;-144.85;100.00;61331.59;5069634;28;31060;-85
2023/05/02 03:46:32;;;;;;;8.50;4.10;;;;;;;-144.85;100.00;61331.59;5080729;28;32118;-84
2023/05/02 03:49:02;;;;;;;7.35;3.78;;;;;;;-144.85;100.00;61331.59;5060716;28;31453;-82
2023/05/02 03:51:29;;;;;;;9.05;3.65;;;;;;;-144.85;100.00;61331.59;5062375;28;31571;-84
2023/05/02 03:54:00;;;;;;;8.15;3.80;;;;;;;-144.85;100.00;61331.59;5074300;28;31076;-82
2023/05/02 03:56:27;;;;;;;8.70;3.80;;;;;;;-144.85;100.00;61331.59;5076197;28;32153;-83
2023/05/02 03:59:09;;;;;;;7.63;3.50;;;;;;;-144.85;100.00;61331.59;5079229;28;31548;-84
2023/05/02 04:01:36;;;;;;;9.32;3.45;;;;;;;-144.85;100.00;61331.59;5076813;28;30906;-83
2023/05/02 04:04:07;;;;;;;12.30;3.85;;;;;;;-144.85;100.00;61331.59;5054079;28;32169;-84
2023/05/02 04:06:40;;;;;;;11.45;3.70;;;;;;;-144.85;100.00;61331.59;5078048;28;30706;-84
2023/05/02 04:09:09;;;;;;;9.45;3.30;;;;;;;-144.85;100.00;61331.59;5070921;28;32498;-84
2023/05/02 04:11:42;;;;;;;6.13;3.10;;;;;;;-144.85;100.00;61331.59;5059824;28;31487;-83
2023/05/02 04:14:11;;;;;;;9.55;3.22;;;;;;;-144.85;100.00;61331.59;5058615;28;31158;-84
2023/05/02 04:16:40;;;;;;;9.90;2.97;;;;;;;-144.85;100.00;61331.59;5059866;28;31049;-83
2023/05/02 04:19:09;;;;;;;6.30;2.53;;;;;;;-144.85;100.00;61331.59;5073773;28;32888;-84
2023/05/02 04:21:38;;;;;;;11.10;2.50;;;;;;;-144.85;100.00;61331.59;5062491;28;31077;-84
2023/05/02 04:24:07;;;;;;;9.82;2.47;;;;;;;-144.85;100.00;61331.59;5076249;28;31043;-84
2023/05/02 04:26:36;;;;;;;8.38;2.50;;;;;;;-144.85;100.00;61331.59;5078014;28;32755;-81
2023/05/02 04:29:07;;;;;;;5.85;2.65;;;;;;;-144.85;100.00;61331.59;5061923;28;31488;-83
2023/05/02 04:31:35;;;;;;;11.85;2.42;;;;;;;-144.85;100.00;61331.59;5067716;28;30875;-83
2023/05/02 04:34:03;;;;;;;6.53;2.45;;;;;;;-144.85;100.00;61331.59;5072074;28;32586;-85
2023/05/02 04:36:36;;;;;;;8.10;2.65;;;;;;;-144.85;100.00;61331.59;5058778;28;30579;-84
2023/05/02 04:39:06;;;;;;;8.07;2.65;;;;;;;-144.85;100.00;61331.59;5076811;28;32654;-84
2023/05/02 04:41:36;;;;;;;6.75;2.45;;;;;;;-144.85;100.00;61331.59;5079632;28;31125;-85
2023/05/02 04:44:05;;;;;;;7.85;1.95;;;;;;;-144.85;100.00;61331.59;5076309;28;31211;-83
2023/05/02 04:46:34;;;;;;;8.32;2.55;;;;;;;-144.85;100.00;61331.59;5077742;28;30636;-84
2023/05/02 04:49:01;;;;;;;5.72;2.00;;;;;;;-144.85;100.00;61331.59;5059890;28;32271;-83
2023/05/02 04:51:30;;;;;;;8.23;2.00;;;;;;;-144.85;100.00;61331.59;5067416;28;32569;-84
2023/05/02 04:53:58;;;;;;;6.43;2.10;;;;;;;-144.85;100.00;61331.59;5075100;28;30999;-84
2023/05/02 04:56:26;;;;;;;6.68;2.03;;;;;;;-144.85;100.00;61331.59;5078838;28;33159;-83
2023/05/02 04:58:53;;;;;;;8.45;2.20;;;;;;;-144.85;100.00;61331.59;5075215;28;31222;-83
2023/05/02 05:01:22;;;;;;;9.13;2.08;;;;;;;-144.85;100.00;61331.59;5056371;28;31739;-83
2023/05/02 05:03:50;;;;;;;6.45;2.40;;;;;;;-144.85;100.00;61331.59;5076055;28;33254;-85
2023/05/02 05:06:18;;;;;;;8.35;2.13;;;;;;;-144.85;100.00;61331.59;5060898;28;30483;-82
2023/05/02 05:08:46;;;;;;;5.80;1.95;;;;;;;-144.85;100.00;61331.59;5091089;28;33280;-84
2023/05/02 05:11:15;;;;;;;5.28;2.00;;;;;;;-144.85;100.00;61331.59;5071285;28;31195;-84
2023/05/02 05:13:42;;;;;;;6.90;1.90;;;;;;;-144.85;100.00;61331.59;5085033;28;31262;-83
2023/05/02 05:16:11;;;;;;;6.68;2.10;;;;;;;-144.85;100.00;61331.59;5059596;28;30710;-84
2023/05/02 05:18:41;;;;;;;5.43;2.33;;;;;;;-144.85;100.00;61331.59;5066486;28;31598;-81
2023/05/02 05:21:11;;;;;;;7.05;2.10;;;;;;;-144.85;100.00;61331.59;5081854;28;31592;-84
2023/05/02 05:23:44;;;;;;;10.52;2.28;;;;;;;-144.85;100.00;61331.59;5064214;28;30739;-84
2023/05/02 05:26:16;;;;;;;6.40;1.98;;;;;;;-144.85;100.00;61331.59;5082595;28;31386;-86
2023/05/02 05:28:46;;;;;;;7.82;2.10;;;;;;;-144.85;100.00;61331.59;5078695;28;32729;-84
2023/05/02 05:31:15;;;;;;;7.70;2.15;;;;;;;-144.85;100.00;61331.59;5068160;28;31407;-83
2023/05/02 05:33:46;;;;;;;8.02;2.28;;;;;;;-144.85;100.00;61331.59;5062950;28;30514;-84
2023/05/02 05:36:14;;;;;;;6.10;1.95;;;;;;;-144.85;100.00;61331.59;5079735;28;31031;-84
2023/05/02 05:38:42;;;;;;;7.57;2.13;;;;;;;-144.85;100.00;61331.59;5078941;28;31473;-83
2023/05/02 05:41:10;;;;;;;5.38;2.03;;;;;;;-144.85;100.00;61331.59;5077936;28;32719;-84
2023/05/02 05:43:42;;;;;;;5.32;2.00;;;;;;;-144.85;100.00;61331.59;5071998;28;31436;-83
2023/05/02 05:46:10;;;;;;;8.07;1.92;;;;;;;-144.85;100.00;61331.59;5075812;28;30481;-83
2023/05/02 05:48:37;;;;;;;5.28;2.03;;;;;;;-144.85;100.00;61331.59;5064778;28;31544;-84
2023/05/02 05:51:05;;;;;;;7.45;2.30;;;;;;;-144.85;100.00;61331.59;5087344;28;33026;-84
2023/05/02 05:53:33;;;;;;;10.50;2.08;;;;;;;-144.85;100.00;61331.59;5089028;28;31915;-84
2023/05/02 05:56:10;;;;;;;5.57;2.22;;;;;;;-144.85;100.00;61331.59;5089558;28;31120;-83
2023/05/02 05:58:39;;;;;;;7.15;1.88;;;;;;;-144.85;100.00;61331.59;5072806;28;31571;-84
2023/05/02 06:01:07;;;;;;;6.82;2.33;;;;;;;-144.85;100.00;61331.59;5069830;28;31015;-82
2023/05/02 06:03:35;;;;;;;7.20;2.30;;;;;;;-144.85;100.00;61331.59;5069071;28;32608;-84
2023/05/02 06:06:03;;;;;;;6.13;2.38;;;;;;;-144.85;100.00;61331.59;5071654;28;31504;-87
2023/05/02 06:08:30;;;;;;;5.78;2.28;;;;;;;-144.85;100.00;61331.59;5092737;28;32574;-84
2023/05/02 06:10:58;;;;;;;7.30;2.20;;;;;;;-144.85;100.00;61331.59;5079560;28;33876;-85
2023/05/02 06:13:25;;;;;;;6.43;2.33;;;;;;;-144.85;100.00;61331.59;5091226;28;31338;-84
2023/05/02 06:15:52;;;;;;;6.78;2.35;;;;;;;-144.85;100.00;61331.59;5086275;28;30071;-82
2023/05/02 06:18:19;;;;;;;6.82;2.47;;;;;;;-144.85;100.00;61331.59;5084935;28;32600;-84
2023/05/02 06:20:46;;;;;;;8.38;2.55;;;;;;;-144.85;100.00;61331.59;5087086;28;32686;-84
2023/05/02 06:23:14;;;;;;;10.80;2.25;;;;;;;-144.85;100.00;61331.59;5071034;28;31949;-85
2023/05/02 06:25:41;;;;;;;7.32;2.13;;;;;;;-144.85;100.00;61331.59;5086965;28;30263;-84
2023/05/02 06:28:08;;;;;;;7.75;2.03;;;;;;;-144.85;100.00;61331.59;5094609;28;32366;-85
2023/05/02 06:30:35;;;;;;;11.05;2.17;;;;;;;-144.85;100.00;61331.59;5091424;28;32430;-84
2023/05/02 06:33:03;;;;;;;8.18;2.08;;;;;;;-144.85;100.00;61331.59;5082979;28;32385;-83
2023/05/02 06:35:30;;;;;;;7.38;2.47;;;;;;;-144.85;100.00;61331.59;5071562;28;30502;-84
2023/05/02 06:37:58;;;;;;;9.48;2.58;;;;;;;-144.85;100.00;61331.59;5078668;28;31417;-83
2023/05/02 06:40:25;;;;;;;12.90;2.38;;;;;;;-144.85;100.00;61331.59;5076488;28;31066;-83
2023/05/02 06:42:52;;;;;;;5.38;1.90;;;;;;;-144.85;100.00;61331.59;5077627;28;31170;-82
2023/05/02 06:45:21;;;;;;;6.03;2.00;;;;;;;-144.85;100.00;61331.59;5082089;28;32673;-83
2023/05/02 06:47:49;;;;;;;6.55;2.10;;;;;;;-144.85;100.00;61331.59;5083990;28;31147;-82
2023/05/02 06:50:16;;;;;;;7.78;2.17;;;;;;;-144.85;100.00;61331.59;5072164;28;31069;-83
2023/05/02 06:52:43;;;;;;;6.85;1.83;;;;;;;-144.85;100.00;61331.59;5078670;28;30859;-82
2023/05/02 06:55:11;;;;;;;6.47;1.80;;;;;;;-144.85;100.00;61331.59;5081738;28;30585;-83
2023/05/02 06:57:38;;;;;;;3.58;1.45;;;;;;;-144.85;100.00;61331.59;5091166;28;31774;-84
2023/05/02 07:00:05;;;;;;;3.80;1.60;;;;;;;-144.85;100.00;61331.59;5100185;28;32314;-83
2023/05/02 07:02:33;;;;;;;7.43;2.00;;;;;;;-144.85;100.00;61331.59;5100154;28;33596;-87
2023/05/02 07:05:00;;;;;;;7.95;2.30;;;;;;;-144.85;100.00;61331.59;5090067;28;34020;-85
2023/05/02 07:07:27;;;;;;;8.13;1.95;;;;;;;-144.85;100.00;61331.59;5095072;28;31352;-84
2023/05/02 07:09:54;;;;;;;9.23;2.17;;;;;;;-144.85;100.00;61331.59;5084676;28;32710;-82
2023/05/02 07:12:21;;;;;;;7.38;2.20;;;;;;;-144.85;100.00;61331.59;5084818;28;31226;-83
2023/05/02 07:14:48;;;;;;;5.90;2.20;;;;;;;-144.85;100.00;61331.59;5107532;28;33290;-87
2023/05/02 07:17:16;;;;;;;12.00;2.35;;;;;;;-144.85;100.00;61331.59;5100237;28;31835;-84
2023/05/02 07:19:43;;;;;;;6.68;2.15;;;;;;;-144.85;100.00;61331.59;5097106;28;31195;-85
2023/05/02 07:22:11;;;;;;;6.80;1.80;;;;;;;-144.85;100.00;61331.59;5087784;28;32140;-85
2023/05/02 07:24:40;;;;;;;6.80;2.00;;;;;;;-144.85;100.00;61331.59;5092251;28;31056;-85
2023/05/02 07:27:09;;;;;;;4.25;1.83;;;;;;;-144.85;100.00;61331.59;5091235;28;31353;-85
2023/05/02 07:29:36;;;;;;;6.57;2.15;;;;;;;-144.85;100.00;61331.59;5072874;28;30670;-84
2023/05/02 07:32:04;;;;;;;11.35;2.67;;;;;;;-144.85;100.00;61331.59;5072283;28;33127;-83
2023/05/02 07:34:31;;;;;;;8.50;2.30;;;;;;;-144.85;100.00;61331.59;5079023;28;30311;-84
2023/05/02 07:36:58;;;;;;;6.55;2.47;;;;;;;-144.85;100.00;61331.59;5068315;28;32946;-84
2023/05/02 07:39:25;;;;;;;6.65;1.98;;;;;;;-144.85;100.00;61331.59;5079785;28;31089;-83
2023/05/02 07:41:53;;;;;;;8.57;2.30;;;;;;;-144.85;100.00;61331.59;5083228;28;32040;-84
2023/05/02 07:44:20;;;;;;;9.32;2.05;;;;;;;-144.85;100.00;61331.59;5068882;28;30616;-85
2023/05/02 07:46:48;;;;;;;7.32;2.40;;;;;;;-144.85;100.00;61331.59;5059951;28;32657;-83
2023/05/02 07:49:15;;;;;;;7.35;2.22;;;;;;;-144.85;100.00;61331.59;5069620;28;32000;-84
2023/05/02 07:51:43;;;;;;;6.03;2.30;;;;;;;-144.85;100.00;61331.59;5075008;28;31894;-83
2023/05/02 07:54:18;;;;;;;8.27;2.40;;;;;;;-144.85;100.00;61331.59;5058361;28;31744;-83
2023/05/02 07:56:46;;;;;;;7.40;2.03;;;;;;;-144.85;100.00;61331.59;5077235;28;31505;-83
2023/05/02 07:59:13;;;;;;;9.35;2.38;;;;;;;-144.85;100.00;61331.59;5077309;28;31104;-83
2023/05/02 08:01:41;;;;;;;7.82;2.20;;;;;;;-144.85;100.00;61331.59;5074458;28;32679;-83
2023/05/02 08:04:11;;;;;;;8.15;2.80;;;;;;;-144.85;100.00;61331.59;5088819;28;31070;-84
2023/05/02 08:06:39;;;;;;;10.10;2.63;;;;;;;-144.85;100.00;61331.59;5071903;28;32670;-83
2023/05/02 08:09:08;;;;;;;7.13;2.50;;;;;;;-144.85;100.00;61331.59;5081370;28;32079;-85
2023/05/02 08:11:35;;;;;;;8.45;2.20;;;;;;;-144.85;100.00;61331.59;5078345;28;30722;-82
2023/05/02 08:14:02;;;;;;;10.48;2.28;;;;;;;-144.85;100.00;61331.59;5063539;28;31324;-83
2023/05/02 08:16:29;;;;;;;7.28;2.33;;;;;;;-144.85;100.00;61331.59;5074056;28;32475;-83
2023/05/02 08:18:56;;;;;;;6.60;2.00;;;;;;;-144.85;100.00;61331.59;5080275;28;32301;-82
2023/05/02 08:21:23;;;;;;;4.85;2.10;;;;;;;-144.85;100.00;61331.59;5073390;28;31913;-83
2023/05/02 08:23:50;;;;;;;6.53;2.10;;;;;;;-144.85;100.00;61331.59;5068327;28;30100;-84
2023/05/02 08:26:20;;;;;;;6.72;1.98;;;;;;;-144.85;100.00;61331.59;5059537;28;31199;-83
2023/05/02 08:28:47;;;;;;;10.10;1.77;;;;;;;-144.85;100.00;61331.59;5081111;28;32316;-82
2023/05/02 08:31:15;;;;;;;6.45;2.00;;;;;;;-144.85;100.00;61331.59;5059584;28;31207;-82
2023/05/02 08:33:42;;;;;;;7.22;2.17;;;;;;;-144.85;100.00;61331.59;5094334;28;31892;-82
2023/05/02 08:36:14;;;;;;;7.45;2.15;;;;;;;-144.85;100.00;61331.59;5080968;28;31817;-83
2023/05/02 08:38:42;;;;;;;5.00;1.63;;;;;;;-144.85;100.00;61331.59;5080292;28;30875;-83
2023/05/02 08:41:16;;;;;;;7.97;1.73;;;;;;;-144.85;100.00;61331.59;5062146;28;30686;-83
2023/05/02 08:43:45;;;;;;;5.93;1.88;;;;;;;-144.85;100.00;61331.59;5077219;28;31582;-83
2023/05/02 08:46:14;;;;;;;5.25;1.52;;;;;;;-144.85;100.00;61331.59;5080827;28;32631;-83
2023/05/02 08:48:43;;;;;;;7.32;2.00;;;;;;;-144.85;100.00;61331.59;5076987;28;31962;-82
2023/05/02 08:51:12;;;;;;;4.90;1.65;;;;;;;-144.85;100.00;61331.59;5077189;28;30809;-83
2023/05/02 08:53:40;;;;;;;4.38;1.60;;;;;;;-144.85;100.00;61331.59;5080525;28;32150;-83
2023/05/02 08:56:09;;;;;;;7.65;1.70;;;;;;;-144.85;100.00;61331.59;5080729;28;31950;-83
2023/05/02 08:58:37;;;;;;;7.20;1.60;;;;;;;-144.85;100.00;61331.59;5080032;28;31954;-81
2023/05/02 09:01:13;;;;;;;4.70;1.55;;;;;;;-144.85;100.00;61331.59;5079048;28;30584;-83
2023/05/02 09:03:43;;;;;;;3.92;1.58;;;;;;;-144.85;100.00;61331.59;5078469;28;30691;-83
2023/05/02 09:06:29;;;;;;;4.32;1.60;;;;;;;-144.85;100.00;61331.59;5078706;28;31154;-84
2023/05/02 09:08:59;;;;;;;5.13;1.88;;;;;;;-144.85;100.00;61331.59;5077771;28;32087;-83
2023/05/02 09:11:28;;;;;;;4.95;1.70;;;;;;;-144.85;100.00;61331.59;5067408;28;31948;-83
2023/05/02 09:13:57;;;;;;;5.78;1.80;;;;;;;-144.85;100.00;61331.59;5079221;28;31160;-83
2023/05/02 09:16:25;;;;;;;5.20;1.70;;;;;;;-144.85;100.00;61331.59;5078251;28;33213;-82
2023/05/02 09:18:57;;;;;;;5.03;1.67;;;;;;;-144.85;100.00;61331.59;5080834;28;32344;-83
2023/05/02 09:21:36;;;;;;;9.02;2.15;;;;;;;-144.85;100.00;61331.59;5079195;28;31022;-83
2023/05/02 09:24:21;;;;;;;7.38;2.10;;;;;;;-144.85;100.00;61331.59;5072467;28;31448;-82
2023/05/02 09:26:58;;;;;;;7.50;1.90;;;;;;;-144.85;100.00;61331.59;5071789;28;32449;-82
2023/05/02 09:29:29;;;;;;;5.07;2.00;;;;;;;-144.85;100.00;61331.59;5063708;28;31884;-83
2023/05/02 09:31:57;;;;;;;13.32;2.40;;;;;;;-144.85;100.00;61331.59;5063200;28;31766;-82
2023/05/02 09:34:24;;;;;;;6.13;1.85;;;;;;;-144.85;100.00;61331.59;5069832;28;30403;-83
2023/05/02 09:36:52;;;;;;;6.82;1.73;;;;;;;-144.85;100.00;61331.59;5088180;28;31247;-82
2023/05/02 09:39:23;;;;;;;10.82;2.20;;;;;;;-144.85;100.00;61331.59;5082530;28;32729;-83
2023/05/02 09:41:52;;;;;;;7.57;2.30;;;;;;;-144.85;100.00;61331.59;5072605;28;30770;-83
2023/05/02 09:44:23;;;;;;;6.25;1.83;;;;;;;-144.85;100.00;61331.59;5079251;28;31402;-84
2023/05/02 09:46:52;;;;;;;5.30;1.80;;;;;;;-144.85;100.00;61331.59;5078364;28;31183;-82
2023/05/02 09:49:40;;;;;;;6.40;2.20;;;;;;;-144.85;100.00;61331.59;5077816;28;30840;-83
2023/05/02 09:52:15;;;;;;;4.75;1.70;;;;;;;-144.85;100.00;61331.59;5079749;28;31499;-83
2023/05/02 09:54:45;;;;;;;8.68;2.08;;;;;;;-144.85;100.00;61331.59;5078428;28;30665;-83
2023/05/02 09:57:12;;;;;;;5.97;1.90;;;;;;;-144.85;100.00;61331.59;5080022;28;32323;-83
2023/05/02 09:59:39;;;;;;;6.97;1.77;;;;;;;-144.85;100.00;61331.59;5073837;28;32104;-83
2023/05/02 10:02:10;;;;;;;8.35;2.13;;;;;;;-144.85;100.00;61331.59;5058125;28;31560;-84
2023/05/02 10:04:38;;;;;;;10.68;5.15;;;;;;;-144.85;100.00;61331.59;5076013;28;31136;-85
2023/05/02 10:07:09;;;;;;;9.40;3.75;;;;;;;-144.85;100.00;61331.59;5061868;28;33049;-83
2023/05/02 10:09:42;;;;;;;3.92;1.95;;;;;;;-144.85;100.00;61331.59;5074525;28;33019;-83
2023/05/02 10:12:13;;;;;;;6.40;1.70;;;;;;;-144.85;100.00;61331.59;5059999;28;32209;-83
2023/05/02 10:14:49;;;;;;;5.25;1.55;;;;;;;-144.85;100.00;61331.59;5078513;28;30647;-83
2023/05/02 10:17:26;;;;;;;5.20;1.70;;;;;;;-144.85;100.00;61331.59;5073072;28;32588;-82
2023/05/02 10:20:05;;;;;;;5.35;1.60;;;;;;;-144.85;100.00;61331.59;5070752;28;30763;-84
2023/05/02 10:22:33;;;;;;;4.40;1.67;;;;;;;-144.85;100.00;61331.59;5077830;28;30959;-83
2023/05/02 10:25:01;;;;;;;5.95;1.80;;;;;;;-144.85;100.00;61331.59;5066594;28;32173;-84
2023/05/02 10:27:30;;;;;;;5.70;2.97;;;;;;;-144.85;100.00;61331.59;5071726;28;31210;-83
2023/05/02 10:29:59;;;;;;;9.20;2.10;;;;;;;-144.85;100.00;61331.59;5071222;28;31821;-82
2023/05/02 10:32:28;;;;;;;5.95;1.73;;;;;;;-144.85;100.00;61331.59;5077390;28;32304;-82
2023/05/02 10:34:56;;;;;;;6.10;1.60;;;;;;;-144.85;100.00;61331.59;5067794;28;32547;-83
2023/05/02 10:37:25;;;;;;;3.88;1.70;;;;;;;-144.85;100.00;61331.59;5074562;28;33819;-84
2023/05/02 10:39:52;;;;;;;4.35;1.77;;;;;;;-144.85;100.00;61331.59;5070259;28;31806;-84
2023/05/02 10:42:20;;;;;;;6.78;1.83;;;;;;;-144.85;100.00;61331.59;5055068;28;30689;-84
2023/05/02 10:44:49;;;;;;;5.45;1.67;;;;;;;-144.85;100.00;61331.59;5059352;28;31239;-82
2023/05/02 10:47:20;;;;;;;8.07;1.80;;;;;;;-144.85;100.00;61331.59;5058266;28;32348;-82
2023/05/02 10:49:59;;;;;;;5.93;1.92;;;;;;;-144.85;100.00;61331.59;5056915;28;30907;-82
2023/05/02 10:52:36;;;;;;;4.13;1.55;;;;;;;-144.85;100.00;61331.59;5068286;28;31610;-83
2023/05/02 10:55:16;;;;;;;4.70;1.77;;;;;;;-144.85;100.00;61331.59;5055664;28;31471;-83
2023/05/02 10:57:56;;;;;;;5.47;1.80;;;;;;;-144.85;100.00;61331.59;5069479;28;32445;-83
2023/05/02 11:00:33;;;;;;;5.93;1.98;;;;;;;-144.85;100.00;61331.59;5083972;28;31266;-83
2023/05/02 11:03:01;;;;;;;5.97;2.10;;;;;;;-144.85;100.00;61331.59;5074744;28;32176;-83
2023/05/02 11:05:29;;;;;;;4.53;1.80;;;;;;;-144.85;100.00;61331.59;5077700;28;31077;-84
2023/05/02 11:08:14;;;;;;;4.07;1.70;;;;;;;-144.85;100.00;61331.59;5075152;28;32597;-84
2023/05/02 11:10:44;;;;;;;4.53;2.15;;;;;;;-144.85;100.00;61331.59;5064305;28;32145;-82
2023/05/02 11:13:12;;;;;;;6.43;2.20;;;;;;;-144.85;100.00;61331.59;5058520;28;32108;-83
2023/05/02 11:15:39;;;;;;;7.05;2.30;;;;;;;-144.85;100.00;61331.59;5070812;28;31283;-83
2023/05/02 11:18:13;;;;;;;4.43;2.13;;;;;;;-144.85;100.00;61331.59;5058406;28;32357;-84